Decoded Metar for PAPO (POINT HOPE in AK, USA) (IATA:PHO) | Meteo·Mobile Aviation Weather
aviador You're here:

PAPO Decoded Metar

POINT HOPE in AK, USA
Report Time2018-11-20 15:56:00
UTC Time2018-11-20 16:11:08
Flight Rules vfr VFR
Wind020° at 19 kt
W.Decomp.*RWY 01: 19.0 kt HW 0.3 kt LCW
W.Rank020° ranks 2
Current wind is above 020° avg. (15.6)
Visibility9999 m
Phenomena:N/A
Clouds:Broken 060 Hf
Expected CloudBase > 800 ft AGL from Temp-Dew spread
Ceiling6,000 ft
Temp-6°C (ISA -21)
Dew Point-8°C (86% RH)
AAT-15.7°C
QNH999 hPa
Density Alt-2,047 ft
Elevation20 ft
Report Wrong Elevation
Raw Report
PAPO 201556Z AUTO 02019KT 10SM BKN060 M06/M08 A2951 RMK AO2 SLP992
T10561083 FZRANO=

Extra information for PAPO:More info

Metar Taf Metar & Taf Last 4 Metars F.Rules Stats Wind Profile Meteogram Temp Stats Airport Information Weather charts Add Link Nearby VenuesMetar ALERT Operation Metar Decoded Social comments

AIRNAV info for PAPO